sensor_id;sensor_type;location;lat;lon;timestamp;pressure;altitude;pressure_sealevel;temperature;humidity
48517;BME280;34310;51.904;4.256;2023-04-25T00:00:56;101271.16;;;16.31;58.47
48517;BME280;34310;51.904;4.256;2023-04-25T00:03:23;101265.03;;;16.30;58.59
48517;BME280;34310;51.904;4.256;2023-04-25T00:05:52;101262.34;;;16.29;58.78
48517;BME280;34310;51.904;4.256;2023-04-25T00:08:20;101263.97;;;16.27;58.71
48517;BME280;34310;51.904;4.256;2023-04-25T00:10:47;101259.66;;;16.27;58.56
48517;BME280;34310;51.904;4.256;2023-04-25T00:13:15;101266.59;;;16.27;58.78
48517;BME280;34310;51.904;4.256;2023-04-25T00:15:44;101266.50;;;16.25;58.69
48517;BME280;34310;51.904;4.256;2023-04-25T00:18:15;101269.09;;;16.25;58.72
48517;BME280;34310;51.904;4.256;2023-04-25T00:20:43;101272.53;;;16.24;58.73
48517;BME280;34310;51.904;4.256;2023-04-25T00:23:15;101272.44;;;16.23;58.59
48517;BME280;34310;51.904;4.256;2023-04-25T00:25:45;101275.88;;;16.22;58.55
48517;BME280;34310;51.904;4.256;2023-04-25T00:28:13;101277.56;;;16.21;58.79
48517;BME280;34310;51.904;4.256;2023-04-25T00:30:41;101267.97;;;16.20;58.83
48517;BME280;34310;51.904;4.256;2023-04-25T00:33:08;101269.69;;;16.20;58.81
48517;BME280;34310;51.904;4.256;2023-04-25T00:35:36;101264.34;;;16.18;58.58
48517;BME280;34310;51.904;4.256;2023-04-25T00:38:04;101272.97;;;16.17;58.81
48517;BME280;34310;51.904;4.256;2023-04-25T00:40:31;101277.28;;;16.17;58.72
48517;BME280;34310;51.904;4.256;2023-04-25T00:42:58;101282.50;;;16.17;58.89
48517;BME280;34310;51.904;4.256;2023-04-25T00:45:28;101288.53;;;16.16;58.94
48517;BME280;34310;51.904;4.256;2023-04-25T00:47:59;101294.53;;;16.15;58.68
48517;BME280;34310;51.904;4.256;2023-04-25T00:50:27;101299.75;;;16.15;58.90
48517;BME280;34310;51.904;4.256;2023-04-25T00:52:54;101309.19;;;16.13;58.85
48517;BME280;34310;51.904;4.256;2023-04-25T00:55:22;101299.69;;;16.13;58.92
48517;BME280;34310;51.904;4.256;2023-04-25T00:57:49;101289.16;;;16.11;58.70
48517;BME280;34310;51.904;4.256;2023-04-25T01:00:17;101287.38;;;16.10;59.00
48517;BME280;34310;51.904;4.256;2023-04-25T01:02:45;101287.38;;;16.10;58.91
48517;BME280;34310;51.904;4.256;2023-04-25T01:05:13;101283.78;;;16.08;58.89
48517;BME280;34310;51.904;4.256;2023-04-25T01:07:41;101286.41;;;16.08;58.93
48517;BME280;34310;51.904;4.256;2023-04-25T01:10:08;101292.41;;;16.07;58.96
48517;BME280;34310;51.904;4.256;2023-04-25T01:12:36;101290.63;;;16.06;58.94
48517;BME280;34310;51.904;4.256;2023-04-25T01:15:04;101282.81;;;16.06;58.81
48517;BME280;34310;51.904;4.256;2023-04-25T01:17:32;101284.44;;;16.04;58.79
48517;BME280;34310;51.904;4.256;2023-04-25T01:20:04;101283.53;;;16.04;59.04
48517;BME280;34310;51.904;4.256;2023-04-25T01:22:32;101289.56;;;16.03;58.94
48517;BME280;34310;51.904;4.256;2023-04-25T01:25:00;101290.47;;;16.03;59.01
48517;BME280;34310;51.904;4.256;2023-04-25T01:27:28;101289.47;;;16.01;59.04
48517;BME280;34310;51.904;4.256;2023-04-25T01:29:56;101297.28;;;16.01;58.94
48517;BME280;34310;51.904;4.256;2023-04-25T01:32:24;101300.72;;;16.00;59.11
48517;BME280;34310;51.904;4.256;2023-04-25T01:34:52;101303.22;;;15.99;58.91
48517;BME280;34310;51.904;4.256;2023-04-25T01:37:20;101311.84;;;15.98;58.94
48517;BME280;34310;51.904;4.256;2023-04-25T01:39:47;101309.25;;;15.98;59.01
48517;BME280;34310;51.904;4.256;2023-04-25T01:42:15;101315.28;;;15.97;58.98
48517;BME280;34310;51.904;4.256;2023-04-25T01:44:43;101309.16;;;15.96;58.98
48517;BME280;34310;51.904;4.256;2023-04-25T01:47:10;101310.88;;;15.96;59.04
48517;BME280;34310;51.904;4.256;2023-04-25T01:49:38;101316.09;;;15.96;59.16
48517;BME280;34310;51.904;4.256;2023-04-25T01:52:05;101324.72;;;15.95;59.09
48517;BME280;34310;51.904;4.256;2023-04-25T01:54:32;101321.22;;;15.94;59.12
48517;BME280;34310;51.904;4.256;2023-04-25T01:57:00;101319.41;;;15.93;59.05
48517;BME280;34310;51.904;4.256;2023-04-25T01:59:28;101328.94;;;15.93;59.19
48517;BME280;34310;51.904;4.256;2023-04-25T02:01:56;101326.25;;;15.91;59.16
48517;BME280;34310;51.904;4.256;2023-04-25T02:04:23;101314.94;;;15.91;59.08
48517;BME280;34310;51.904;4.256;2023-04-25T02:06:50;101314.81;;;15.89;59.12
48517;BME280;34310;51.904;4.256;2023-04-25T02:09:18;101310.41;;;15.88;59.22
48517;BME280;34310;51.904;4.256;2023-04-25T02:11:45;101313.03;;;15.88;59.19
48517;BME280;34310;51.904;4.256;2023-04-25T02:14:13;101317.41;;;15.89;59.13
48517;BME280;34310;51.904;4.256;2023-04-25T02:16:40;101313.03;;;15.88;59.21
48517;BME280;34310;51.904;4.256;2023-04-25T02:19:08;101323.34;;;15.87;59.24
48517;BME280;34310;51.904;4.256;2023-04-25T02:21:35;101319.84;;;15.86;59.13
48517;BME280;34310;51.904;4.256;2023-04-25T02:24:03;101324.25;;;15.87;59.18
48517;BME280;34310;51.904;4.256;2023-04-25T02:26:30;101310.25;;;15.85;59.29
48517;BME280;34310;51.904;4.256;2023-04-25T02:28:58;101320.66;;;15.85;59.17
48517;BME280;34310;51.904;4.256;2023-04-25T02:31:25;101319.69;;;15.83;59.25
48517;BME280;34310;51.904;4.256;2023-04-25T02:33:53;101322.28;;;15.83;59.21
48517;BME280;34310;51.904;4.256;2023-04-25T02:36:20;101322.28;;;15.83;59.39
48517;BME280;34310;51.904;4.256;2023-04-25T02:38:47;101323.91;;;15.81;59.24
48517;BME280;34310;51.904;4.256;2023-04-25T02:41:15;101314.31;;;15.80;59.18
48517;BME280;34310;51.904;4.256;2023-04-25T02:43:42;101313.41;;;15.79;59.25
48517;BME280;34310;51.904;4.256;2023-04-25T02:46:09;101315.09;;;15.79;59.31
48517;BME280;34310;51.904;4.256;2023-04-25T02:48:37;101316.00;;;15.79;59.43
48517;BME280;34310;51.904;4.256;2023-04-25T02:51:04;101316.72;;;15.77;59.45
48517;BME280;34310;51.904;4.256;2023-04-25T02:53:31;101325.44;;;15.77;59.29
48517;BME280;34310;51.904;4.256;2023-04-25T02:55:59;101322.75;;;15.76;59.43
48517;BME280;34310;51.904;4.256;2023-04-25T02:58:26;101315.84;;;15.76;59.35
48517;BME280;34310;51.904;4.256;2023-04-25T03:00:54;101323.66;;;15.76;59.39
48517;BME280;34310;51.904;4.256;2023-04-25T03:03:22;101317.47;;;15.74;59.48
48517;BME280;34310;51.904;4.256;2023-04-25T03:05:50;101318.34;;;15.75;59.48
48517;BME280;34310;51.904;4.256;2023-04-25T03:08:18;101326.16;;;15.75;59.47
48517;BME280;34310;51.904;4.256;2023-04-25T03:10:46;101317.38;;;15.73;59.50
48517;BME280;34310;51.904;4.256;2023-04-25T03:13:13;101315.56;;;15.72;59.54
48517;BME280;34310;51.904;4.256;2023-04-25T03:15:41;101319.06;;;15.72;59.59
48517;BME280;34310;51.904;4.256;2023-04-25T03:18:08;101325.19;;;15.73;59.41
48517;BME280;34310;51.904;4.256;2023-04-25T03:20:35;101328.50;;;15.70;59.47
48517;BME280;34310;51.904;4.256;2023-04-25T03:23:03;101332.00;;;15.71;59.43
48517;BME280;34310;51.904;4.256;2023-04-25T03:25:30;101330.22;;;15.70;59.43
48517;BME280;34310;51.904;4.256;2023-04-25T03:27:57;101328.41;;;15.69;59.52
48517;BME280;34310;51.904;4.256;2023-04-25T03:30:24;101330.94;;;15.67;59.62
48517;BME280;34310;51.904;4.256;2023-04-25T03:32:52;101328.34;;;15.67;59.50
48517;BME280;34310;51.904;4.256;2023-04-25T03:35:19;101326.63;;;15.68;59.39
48517;BME280;34310;51.904;4.256;2023-04-25T03:37:47;101337.84;;;15.67;59.52
48517;BME280;34310;51.904;4.256;2023-04-25T03:40:14;101330.84;;;15.66;59.53
48517;BME280;34310;51.904;4.256;2023-04-25T03:42:42;101338.66;;;15.66;59.59
48517;BME280;34310;51.904;4.256;2023-04-25T03:45:11;101339.47;;;15.65;59.50
48517;BME280;34310;51.904;4.256;2023-04-25T03:47:38;101340.28;;;15.64;59.51
48517;BME280;34310;51.904;4.256;2023-04-25T03:50:06;101355.81;;;15.62;59.57
48517;BME280;34310;51.904;4.256;2023-04-25T03:52:33;101358.50;;;15.64;59.65
48517;BME280;34310;51.904;4.256;2023-04-25T03:55:01;101352.31;;;15.62;59.61
48517;BME280;34310;51.904;4.256;2023-04-25T03:57:28;101365.41;;;15.63;59.63
48517;BME280;34310;51.904;4.256;2023-04-25T03:59:55;101360.88;;;15.61;59.73
48517;BME280;34310;51.904;4.256;2023-04-25T04:02:22;101359.09;;;15.60;59.54
48517;BME280;34310;51.904;4.256;2023-04-25T04:04:50;101360.00;;;15.60;59.67
48517;BME280;34310;51.904;4.256;2023-04-25T04:07:18;101358.19;;;15.59;59.59
48517;BME280;34310;51.904;4.256;2023-04-25T04:09:45;101362.50;;;15.59;59.70
48517;BME280;34310;51.904;4.256;2023-04-25T04:12:12;101365.88;;;15.58;59.60
48517;BME280;34310;51.904;4.256;2023-04-25T04:14:40;101365.88;;;15.58;59.59
48517;BME280;34310;51.904;4.256;2023-04-25T04:17:07;101368.41;;;15.56;59.54
48517;BME280;34310;51.904;4.256;2023-04-25T04:19:35;101358.88;;;15.57;59.65
48517;BME280;34310;51.904;4.256;2023-04-25T04:22:02;101364.00;;;15.55;59.58
48517;BME280;34310;51.904;4.256;2023-04-25T04:24:29;101365.69;;;15.55;59.75
48517;BME280;34310;51.904;4.256;2023-04-25T04:26:57;101368.31;;;15.55;59.60
48517;BME280;34310;51.904;4.256;2023-04-25T04:29:24;101375.22;;;15.54;59.78
48517;BME280;34310;51.904;4.256;2023-04-25T04:31:52;101376.03;;;15.53;59.66
48517;BME280;34310;51.904;4.256;2023-04-25T04:34:20;101369.91;;;15.53;59.68
48517;BME280;34310;51.904;4.256;2023-04-25T04:36:48;101376.84;;;15.52;59.96
48517;BME280;34310;51.904;4.256;2023-04-25T04:39:15;101375.94;;;15.52;59.68
48517;BME280;34310;51.904;4.256;2023-04-25T04:41:43;101386.34;;;15.52;59.78
48517;BME280;34310;51.904;4.256;2023-04-25T04:44:10;101383.66;;;15.50;59.76
48517;BME280;34310;51.904;4.256;2023-04-25T04:46:37;101396.66;;;15.50;59.84
48517;BME280;34310;51.904;4.256;2023-04-25T04:49:10;101383.56;;;15.48;59.68
48517;BME280;34310;51.904;4.256;2023-04-25T04:51:38;101387.88;;;15.48;59.70
48517;BME280;34310;51.904;4.256;2023-04-25T04:54:05;101391.28;;;15.47;59.73
48517;BME280;34310;51.904;4.256;2023-04-25T04:56:32;101392.97;;;15.46;59.91
48517;BME280;34310;51.904;4.256;2023-04-25T04:59:00;101394.69;;;15.46;59.77
48517;BME280;34310;51.904;4.256;2023-04-25T05:01:29;101398.09;;;15.45;59.90
48517;BME280;34310;51.904;4.256;2023-04-25T05:03:57;101394.59;;;15.44;59.89
48517;BME280;34310;51.904;4.256;2023-04-25T05:06:29;101399.81;;;15.44;59.92
48517;BME280;34310;51.904;4.256;2023-04-25T05:08:57;101408.41;;;15.43;59.92
48517;BME280;34310;51.904;4.256;2023-04-25T05:11:24;101415.31;;;15.43;59.92
48517;BME280;34310;51.904;4.256;2023-04-25T05:13:52;101417.94;;;15.43;59.85
48517;BME280;34310;51.904;4.256;2023-04-25T05:16:20;101418.66;;;15.40;59.85
48517;BME280;34310;51.904;4.256;2023-04-25T05:18:48;101420.44;;;15.41;59.86
48517;BME280;34310;51.904;4.256;2023-04-25T05:21:15;101428.25;;;15.41;59.90
48517;BME280;34310;51.904;4.256;2023-04-25T05:23:43;101425.56;;;15.40;59.93
48517;BME280;34310;51.904;4.256;2023-04-25T05:26:10;101434.25;;;15.40;59.93
48517;BME280;34310;51.904;4.256;2023-04-25T05:28:41;101435.88;;;15.38;59.84
48517;BME280;34310;51.904;4.256;2023-04-25T05:31:12;101441.97;;;15.39;59.85
48517;BME280;34310;51.904;4.256;2023-04-25T05:33:39;101451.47;;;15.38;60.06
48517;BME280;34310;51.904;4.256;2023-04-25T05:36:07;101454.88;;;15.37;60.12
48517;BME280;34310;51.904;4.256;2023-04-25T05:38:34;101458.38;;;15.38;60.14
48517;BME280;34310;51.904;4.256;2023-04-25T05:41:02;101467.00;;;15.37;60.05
48517;BME280;34310;51.904;4.256;2023-04-25T05:43:29;101468.72;;;15.36;60.09
48517;BME280;34310;51.904;4.256;2023-04-25T05:45:57;101471.31;;;15.36;60.02
48517;BME280;34310;51.904;4.256;2023-04-25T05:48:24;101475.53;;;15.34;60.11
48517;BME280;34310;51.904;4.256;2023-04-25T05:50:51;101475.53;;;15.34;60.13
48517;BME280;34310;51.904;4.256;2023-04-25T05:53:20;101472.91;;;15.34;59.95
48517;BME280;34310;51.904;4.256;2023-04-25T05:55:47;101472.91;;;15.34;60.09
48517;BME280;34310;51.904;4.256;2023-04-25T05:58:15;101478.94;;;15.33;60.01
48517;BME280;34310;51.904;4.256;2023-04-25T06:00:42;101478.03;;;15.33;60.08
48517;BME280;34310;51.904;4.256;2023-04-25T06:03:09;101477.22;;;15.34;60.11
48517;BME280;34310;51.904;4.256;2023-04-25T06:05:37;101483.22;;;15.33;60.12
48517;BME280;34310;51.904;4.256;2023-04-25T06:08:04;101481.41;;;15.32;60.11
48517;BME280;34310;51.904;4.256;2023-04-25T06:10:31;101484.91;;;15.32;60.15
48517;BME280;34310;51.904;4.256;2023-04-25T06:12:59;101490.91;;;15.31;59.96
48517;BME280;34310;51.904;4.256;2023-04-25T06:15:26;101497.00;;;15.32;60.02
48517;BME280;34310;51.904;4.256;2023-04-25T06:17:56;101502.13;;;15.30;60.07
48517;BME280;34310;51.904;4.256;2023-04-25T06:20:24;101503.13;;;15.32;60.17
48517;BME280;34310;51.904;4.256;2023-04-25T06:22:52;101503.03;;;15.31;60.10
48517;BME280;34310;51.904;4.256;2023-04-25T06:25:19;101501.31;;;15.31;60.15
48517;BME280;34310;51.904;4.256;2023-04-25T06:27:47;101518.63;;;15.31;60.13
48517;BME280;34310;51.904;4.256;2023-04-25T06:30:14;101522.13;;;15.31;60.14
48517;BME280;34310;51.904;4.256;2023-04-25T06:32:43;101517.72;;;15.30;60.08
48517;BME280;34310;51.904;4.256;2023-04-25T06:35:10;101522.94;;;15.30;60.28
48517;BME280;34310;51.904;4.256;2023-04-25T06:37:38;101520.34;;;15.30;60.26
48517;BME280;34310;51.904;4.256;2023-04-25T06:40:06;101525.53;;;15.30;60.19
48517;BME280;34310;51.904;4.256;2023-04-25T06:42:33;101526.25;;;15.28;60.35
48517;BME280;34310;51.904;4.256;2023-04-25T06:45:00;101527.16;;;15.28;60.26
48517;BME280;34310;51.904;4.256;2023-04-25T06:47:28;101533.16;;;15.27;60.32
48517;BME280;34310;51.904;4.256;2023-04-25T06:49:56;101527.06;;;15.27;60.32
48517;BME280;34310;51.904;4.256;2023-04-25T06:52:24;101533.97;;;15.26;60.30
48517;BME280;34310;51.904;4.256;2023-04-25T06:54:51;101520.16;;;15.27;60.40
48517;BME280;34310;51.904;4.256;2023-04-25T06:57:18;101526.16;;;15.26;60.25
48517;BME280;34310;51.904;4.256;2023-04-25T06:59:45;101528.84;;;15.28;60.38
48517;BME280;34310;51.904;4.256;2023-04-25T07:02:13;101536.66;;;15.28;60.34
48517;BME280;34310;51.904;4.256;2023-04-25T07:04:40;101540.06;;;15.27;60.29
48517;BME280;34310;51.904;4.256;2023-04-25T07:07:08;101540.06;;;15.27;60.29
48517;BME280;34310;51.904;4.256;2023-04-25T07:09:35;101541.75;;;15.26;60.32
48517;BME280;34310;51.904;4.256;2023-04-25T07:12:02;101550.47;;;15.27;60.35
48517;BME280;34310;51.904;4.256;2023-04-25T07:14:30;101552.16;;;15.26;60.35
48517;BME280;34310;51.904;4.256;2023-04-25T07:16:57;101547.88;;;15.27;60.31
48517;BME280;34310;51.904;4.256;2023-04-25T07:19:25;101546.97;;;15.26;60.29
48517;BME280;34310;51.904;4.256;2023-04-25T07:21:53;101549.56;;;15.26;60.32
48517;BME280;34310;51.904;4.256;2023-04-25T07:24:21;101553.88;;;15.26;60.34
48517;BME280;34310;51.904;4.256;2023-04-25T07:26:48;101558.28;;;15.27;60.33
48517;BME280;34310;51.904;4.256;2023-04-25T07:29:15;101552.16;;;15.26;60.32
48517;BME280;34310;51.904;4.256;2023-04-25T07:31:43;101565.19;;;15.26;60.29
48517;BME280;34310;51.904;4.256;2023-04-25T07:34:10;101571.28;;;15.27;60.39
48517;BME280;34310;51.904;4.256;2023-04-25T07:36:37;101572.97;;;15.26;60.32
48517;BME280;34310;51.904;4.256;2023-04-25T07:39:05;101572.97;;;15.26;60.42
48517;BME280;34310;51.904;4.256;2023-04-25T07:41:32;101575.59;;;15.26;60.33
48517;BME280;34310;51.904;4.256;2023-04-25T07:44:00;101572.97;;;15.26;60.37
48517;BME280;34310;51.904;4.256;2023-04-25T07:46:27;101580.78;;;15.26;60.51
48517;BME280;34310;51.904;4.256;2023-04-25T07:48:55;101582.50;;;15.26;60.41
48517;BME280;34310;51.904;4.256;2023-04-25T07:51:22;101580.78;;;15.26;60.33
48517;BME280;34310;51.904;4.256;2023-04-25T07:53:49;101585.00;;;15.24;60.50
48517;BME280;34310;51.904;4.256;2023-04-25T07:56:17;101589.41;;;15.25;60.43
48517;BME280;34310;51.904;4.256;2023-04-25T07:58:45;101592.78;;;15.24;60.40
48517;BME280;34310;51.904;4.256;2023-04-25T08:01:12;101595.50;;;15.26;60.55
48517;BME280;34310;51.904;4.256;2023-04-25T08:03:39;101596.31;;;15.25;60.41
48517;BME280;34310;51.904;4.256;2023-04-25T08:06:07;101608.50;;;15.26;60.49
48517;BME280;34310;51.904;4.256;2023-04-25T08:08:35;101610.19;;;15.25;60.45
48517;BME280;34310;51.904;4.256;2023-04-25T08:11:02;101610.19;;;15.25;60.56
48517;BME280;34310;51.904;4.256;2023-04-25T08:13:30;101614.59;;;15.26;60.43
48517;BME280;34310;51.904;4.256;2023-04-25T08:15:57;101620.59;;;15.25;60.53
48517;BME280;34310;51.904;4.256;2023-04-25T08:18:24;101628.50;;;15.27;60.51
48517;BME280;34310;51.904;4.256;2023-04-25T08:20:52;101632.81;;;15.26;60.50
48517;BME280;34310;51.904;4.256;2023-04-25T08:23:19;101639.72;;;15.26;60.40
48517;BME280;34310;51.904;4.256;2023-04-25T08:25:46;101636.31;;;15.27;60.52
48517;BME280;34310;51.904;4.256;2023-04-25T08:28:14;101651.03;;;15.26;60.50
48517;BME280;34310;51.904;4.256;2023-04-25T08:30:42;101646.72;;;15.27;60.56
48517;BME280;34310;51.904;4.256;2023-04-25T08:33:09;101644.13;;;15.27;60.56
48517;BME280;34310;51.904;4.256;2023-04-25T08:35:38;101653.72;;;15.28;60.45
48517;BME280;34310;51.904;4.256;2023-04-25T08:38:05;101663.34;;;15.29;60.29
48517;BME280;34310;51.904;4.256;2023-04-25T08:40:37;101665.03;;;15.28;60.41
48517;BME280;34310;51.904;4.256;2023-04-25T08:43:09;101666.84;;;15.29;60.41
48517;BME280;34310;51.904;4.256;2023-04-25T08:45:41;101677.25;;;15.29;60.49
48517;BME280;34310;51.904;4.256;2023-04-25T08:48:16;101679.84;;;15.29;60.37
48517;BME280;34310;51.904;4.256;2023-04-25T08:50:54;101681.63;;;15.30;60.46
48517;BME280;34310;51.904;4.256;2023-04-25T08:53:31;101680.75;;;15.30;60.34
48517;BME280;34310;51.904;4.256;2023-04-25T08:56:01;101681.63;;;15.30;60.37
48517;BME280;34310;51.904;4.256;2023-04-25T08:58:29;101689.44;;;15.30;60.35
48517;BME280;34310;51.904;4.256;2023-04-25T09:00:57;101694.66;;;15.30;60.45
48517;BME280;34310;51.904;4.256;2023-04-25T09:03:24;101703.34;;;15.31;60.50
48517;BME280;34310;51.904;4.256;2023-04-25T09:05:52;101712.88;;;15.30;60.45
48517;BME280;34310;51.904;4.256;2023-04-25T09:08:20;101727.66;;;15.31;60.45
48517;BME280;34310;51.904;4.256;2023-04-25T09:10:48;101725.06;;;15.31;60.38
48517;BME280;34310;51.904;4.256;2023-04-25T09:13:23;101733.78;;;15.32;60.44
48517;BME280;34310;51.904;4.256;2023-04-25T09:15:52;101731.16;;;15.32;60.43
48517;BME280;34310;51.904;4.256;2023-04-25T09:18:31;101729.47;;;15.32;60.40
48517;BME280;34310;51.904;4.256;2023-04-25T09:21:09;101733.00;;;15.33;60.56
48517;BME280;34310;51.904;4.256;2023-04-25T09:23:48;101730.41;;;15.33;60.59
48517;BME280;34310;51.904;4.256;2023-04-25T09:26:19;101733.91;;;15.33;60.41
48517;BME280;34310;51.904;4.256;2023-04-25T09:28:47;101730.41;;;15.33;60.50
48517;BME280;34310;51.904;4.256;2023-04-25T09:31:24;101732.19;;;15.34;60.47
48517;BME280;34310;51.904;4.256;2023-04-25T09:33:58;101729.81;;;15.37;60.39
48517;BME280;34310;51.904;4.256;2023-04-25T09:36:27;101733.09;;;15.34;60.56
48517;BME280;34310;51.904;4.256;2023-04-25T09:38:55;101739.09;;;15.33;60.56
48517;BME280;34310;51.904;4.256;2023-04-25T09:41:26;101740.00;;;15.34;60.47
48517;BME280;34310;51.904;4.256;2023-04-25T09:43:57;101746.13;;;15.34;60.42
48517;BME280;34310;51.904;4.256;2023-04-25T09:46:33;101745.31;;;15.35;60.46
48517;BME280;34310;51.904;4.256;2023-04-25T09:49:07;101753.13;;;15.35;60.34
48517;BME280;34310;51.904;4.256;2023-04-25T09:51:35;101754.03;;;15.36;60.49
48517;BME280;34310;51.904;4.256;2023-04-25T09:54:02;101759.22;;;15.36;60.57
48517;BME280;34310;51.904;4.256;2023-04-25T09:56:31;101751.41;;;15.36;60.62
48517;BME280;34310;51.904;4.256;2023-04-25T09:59:03;101759.31;;;15.37;60.62
48517;BME280;34310;51.904;4.256;2023-04-25T10:01:32;101752.31;;;15.36;60.74
48517;BME280;34310;51.904;4.256;2023-04-25T10:04:01;101761.94;;;15.37;60.54
48517;BME280;34310;51.904;4.256;2023-04-25T10:06:33;101757.63;;;15.38;60.65
48517;BME280;34310;51.904;4.256;2023-04-25T10:09:02;101775.84;;;15.38;60.69
48517;BME280;34310;51.904;4.256;2023-04-25T10:11:31;101775.03;;;15.39;60.64
48517;BME280;34310;51.904;4.256;2023-04-25T10:14:00;101788.06;;;15.39;60.76
48517;BME280;34310;51.904;4.256;2023-04-25T10:16:29;101778.53;;;15.39;60.61
48517;BME280;34310;51.904;4.256;2023-04-25T10:18:57;101783.75;;;15.39;60.64
48517;BME280;34310;51.904;4.256;2023-04-25T10:21:25;101787.25;;;15.40;60.69
48517;BME280;34310;51.904;4.256;2023-04-25T10:23:55;101777.75;;;15.40;60.65
48517;BME280;34310;51.904;4.256;2023-04-25T10:26:22;101783.84;;;15.41;60.86
48517;BME280;34310;51.904;4.256;2023-04-25T10:28:58;101789.16;;;15.42;60.68
48517;BME280;34310;51.904;4.256;2023-04-25T10:31:26;101786.53;;;15.42;60.71
48517;BME280;34310;51.904;4.256;2023-04-25T10:33:54;101792.66;;;15.43;60.83
48517;BME280;34310;51.904;4.256;2023-04-25T10:36:23;101785.75;;;15.43;60.81
48517;BME280;34310;51.904;4.256;2023-04-25T10:38:51;101780.53;;;15.43;60.74
48517;BME280;34310;51.904;4.256;2023-04-25T10:41:20;101777.94;;;15.43;60.75
48517;BME280;34310;51.904;4.256;2023-04-25T10:43:49;101777.13;;;15.44;60.77
48517;BME280;34310;51.904;4.256;2023-04-25T10:46:24;101794.56;;;15.45;60.73
48517;BME280;34310;51.904;4.256;2023-04-25T10:48:59;101780.84;;;15.48;60.70
48517;BME280;34310;51.904;4.256;2023-04-25T10:51:29;101785.03;;;15.46;60.80
48517;BME280;34310;51.904;4.256;2023-04-25T10:54:18;101792.84;;;15.46;60.84
48517;BME280;34310;51.904;4.256;2023-04-25T10:56:49;101792.06;;;15.47;60.80
48517;BME280;34310;51.904;4.256;2023-04-25T10:59:18;101794.66;;;15.47;60.93
48517;BME280;34310;51.904;4.256;2023-04-25T11:01:56;101796.34;;;15.46;61.06
48517;BME280;34310;51.904;4.256;2023-04-25T11:04:32;101790.44;;;15.49;60.95
48517;BME280;34310;51.904;4.256;2023-04-25T11:09:39;101800.97;;;15.50;61.03
48517;BME280;34310;51.904;4.256;2023-04-25T11:12:10;101802.66;;;15.50;60.92
48517;BME280;34310;51.904;4.256;2023-04-25T11:14:41;101800.97;;;15.50;60.91
48517;BME280;34310;51.904;4.256;2023-04-25T11:17:09;101804.56;;;15.53;60.97
48517;BME280;34310;51.904;4.256;2023-04-25T11:19:38;101802.84;;;15.53;61.03
48517;BME280;34310;51.904;4.256;2023-04-25T11:22:05;101803.75;;;15.54;61.18
48517;BME280;34310;51.904;4.256;2023-04-25T11:24:35;101807.25;;;15.54;61.05
48517;BME280;34310;51.904;4.256;2023-04-25T11:27:05;101816.06;;;15.56;61.02
48517;BME280;34310;51.904;4.256;2023-04-25T11:29:34;101811.66;;;15.55;61.25
48517;BME280;34310;51.904;4.256;2023-04-25T11:32:02;101810.06;;;15.57;61.14
48517;BME280;34310;51.904;4.256;2023-04-25T11:34:31;101810.97;;;15.58;61.07
48517;BME280;34310;51.904;4.256;2023-04-25T11:37:01;101818.91;;;15.59;61.10
48517;BME280;34310;51.904;4.256;2023-04-25T11:39:30;101812.00;;;15.60;61.12
48517;BME280;34310;51.904;4.256;2023-04-25T11:41:57;101824.22;;;15.61;61.15
48517;BME280;34310;51.904;4.256;2023-04-25T11:44:28;101828.66;;;15.62;61.34
48517;BME280;34310;51.904;4.256;2023-04-25T11:46:56;101818.34;;;15.63;61.36
48517;BME280;34310;51.904;4.256;2023-04-25T11:49:24;101823.66;;;15.65;61.24
48517;BME280;34310;51.904;4.256;2023-04-25T11:51:58;101835.88;;;15.66;61.23
48517;BME280;34310;51.904;4.256;2023-04-25T11:54:25;101831.56;;;15.66;61.27
48517;BME280;34310;51.904;4.256;2023-04-25T11:56:53;101838.56;;;15.67;61.21
48517;BME280;34310;51.904;4.256;2023-04-25T11:59:24;101835.16;;;15.68;61.40
48517;BME280;34310;51.904;4.256;2023-04-25T12:01:52;101842.16;;;15.69;61.23
48517;BME280;34310;51.904;4.256;2023-04-25T12:04:24;101840.47;;;15.70;61.36
48517;BME280;34310;51.904;4.256;2023-04-25T12:06:53;101836.25;;;15.72;61.26
48517;BME280;34310;51.904;4.256;2023-04-25T12:09:29;101836.25;;;15.72;61.22
48517;BME280;34310;51.904;4.256;2023-04-25T12:11:59;101841.66;;;15.75;61.39
48517;BME280;34310;51.904;4.256;2023-04-25T12:14:34;101840.75;;;15.74;61.26
48517;BME280;34310;51.904;4.256;2023-04-25T12:17:03;101843.47;;;15.76;61.41
48517;BME280;34310;51.904;4.256;2023-04-25T12:19:33;101846.06;;;15.76;61.29
48517;BME280;34310;51.904;4.256;2023-04-25T12:22:02;101854.88;;;15.78;61.22
48517;BME280;34310;51.904;4.256;2023-04-25T12:24:34;101847.97;;;15.78;61.37
48517;BME280;34310;51.904;4.256;2023-04-25T12:27:06;101846.28;;;15.79;61.24
48517;BME280;34310;51.904;4.256;2023-04-25T12:29:35;101856.78;;;15.80;61.40
48517;BME280;34310;51.904;4.256;2023-04-25T12:32:06;101855.19;;;15.83;61.46
48517;BME280;34310;51.904;4.256;2023-04-25T12:34:33;101869.09;;;15.83;61.28
48517;BME280;34310;51.904;4.256;2023-04-25T12:37:02;101858.69;;;15.83;61.47
48517;BME280;34310;51.904;4.256;2023-04-25T12:39:30;101870.09;;;15.85;61.42
48517;BME280;34310;51.904;4.256;2023-04-25T12:41:57;101865.78;;;15.86;61.26
48517;BME280;34310;51.904;4.256;2023-04-25T12:44:26;101863.28;;;15.87;61.34
48517;BME280;34310;51.904;4.256;2023-04-25T12:46:53;101870.28;;;15.88;61.32
48517;BME280;34310;51.904;4.256;2023-04-25T12:49:21;101868.59;;;15.89;61.40
48517;BME280;34310;51.904;4.256;2023-04-25T12:51:49;101863.53;;;15.90;61.34
48517;BME280;34310;51.904;4.256;2023-04-25T12:54:18;101867.03;;;15.91;61.29
48517;BME280;34310;51.904;4.256;2023-04-25T12:56:46;101867.13;;;15.92;61.55
48517;BME280;34310;51.904;4.256;2023-04-25T12:59:13;101866.31;;;15.93;61.32